IT-0422 weather

Campo di Volo "Pajaro Loco"
Sesto al Reghena (PN), Friuli-Venezia Giulia, Italy

Public forecast

Using degrees Celsius for public forecast. Weather courtesy of forecast.io.

Closest aviation weather report (METAR) to Campo di Volo "Pajaro Loco"

Report is more than 6 hours old.

Closest report is Rivolto Air Base, 12.6 nm (23.4 km) ENE. Retrieved 2020/08/04 16:55 UTC (12 hours ago):

LIPI 041655Z VRB02KT 9999 SCT030 SCT070 23/16 Q1006 RMK BKN VIS MIN 9999 WIND THR06 VRB02KT WIND THR24 VRB02KT BLU

Closest aviation forecast (TAF) to Campo di Volo "Pajaro Loco"

Forecast is more than 12 hours old.

Closest forecast is Rivolto Air Base, 12.6 nm (23.4 km) ENE. Retrieved 2020/01/23 12:24 UTC (6 months ago):

TAF TAF LIPI 231100Z 2312/2324 06010KT CAVOK